Terminal Aerodrome Forecast
Issued by NWS

Home | Current Version | Previous Version | Text Only | Print | Product List | Glossary On
Versions: 1 2 3 4 5 6 7 8 9 10 11 12 13 14 15 16 17
000
FTUS45 KSLC 250117 AAA
TAFLGU
TAF AMD
KLGU 250117Z 2501/2524 03009KT P6SM BKN090
     FM250300 13005KT P6SM FEW070 BKN100
     FM251200 19006KT P6SM VCSH SCT040 BKN070
     FM251800 24009KT P6SM VCSH SCT030 BKN060=

USA.gov is the U.S. government's official web portal to all federal, state and local government web resources and services.